createdAt,value
2022-09-25T00:01:17.853Z,1.48
2022-09-25T00:03:45.049Z,1.17
2022-09-25T00:06:14.994Z,0.85
2022-09-25T00:08:42.802Z,1.23
2022-09-25T00:11:25.207Z,1.23
2022-09-25T00:13:53.786Z,1.90
2022-09-25T00:16:24.169Z,1.33
2022-09-25T00:19:10.402Z,1.88
2022-09-25T00:21:38.279Z,1.35
2022-09-25T00:24:08.211Z,1.60
2022-09-25T00:26:41.014Z,1.30
2022-09-25T00:29:13.756Z,1.67
2022-09-25T00:31:40.949Z,1.45
2022-09-25T00:34:08.493Z,1.75
2022-09-25T00:36:36.008Z,1.75
2022-09-25T00:39:03.366Z,1.48
2022-09-25T00:41:33.659Z,1.35
2022-09-25T00:44:03.552Z,1.20
2022-09-25T00:46:38.640Z,1.75
2022-09-25T00:49:13.002Z,1.95
2022-09-25T00:51:50.754Z,1.25
2022-09-25T00:54:28.667Z,1.60
2022-09-25T00:56:58.038Z,2.10
2022-09-25T00:59:33.178Z,1.85
2022-09-25T01:02:01.014Z,1.98
2022-09-25T01:04:35.137Z,2.05
2022-09-25T01:07:03.458Z,2.22
2022-09-25T01:09:31.333Z,1.92
2022-09-25T01:11:58.410Z,1.77
2022-09-25T01:14:26.941Z,2.72
2022-09-25T01:17:17.273Z,1.60
2022-09-25T01:20:02.515Z,2.17
2022-09-25T01:22:41.562Z,2.17
2022-09-25T01:25:29.904Z,2.03
2022-09-25T01:28:33.828Z,1.55
2022-09-25T01:31:12.739Z,1.65
2022-09-25T01:33:50.607Z,2.78
2022-09-25T01:36:27.022Z,1.92
2022-09-25T01:39:14.774Z,1.67
2022-09-25T01:41:50.838Z,2.28
2022-09-25T01:44:43.839Z,2.05
2022-09-25T01:47:22.431Z,1.83
2022-09-25T01:49:58.080Z,1.92
2022-09-25T01:52:33.069Z,2.33
2022-09-25T01:55:08.545Z,2.03
2022-09-25T01:57:42.655Z,3.28
2022-09-25T02:00:14.120Z,1.77
2022-09-25T02:02:55.443Z,2.43
2022-09-25T02:05:31.242Z,2.30
2022-09-25T02:08:07.097Z,2.30
2022-09-25T02:10:45.154Z,2.10
2022-09-25T02:13:15.682Z,2.50
2022-09-25T02:15:55.076Z,2.10
2022-09-25T02:18:44.472Z,2.67
2022-09-25T02:21:20.297Z,1.98
2022-09-25T02:24:16.404Z,2.40
2022-09-25T02:26:43.755Z,2.47
2022-09-25T02:29:11.373Z,3.20
2022-09-25T02:31:54.049Z,2.58
2022-09-25T02:34:22.585Z,2.97
2022-09-25T02:36:50.251Z,2.78
2022-09-25T02:39:21.506Z,3.08
2022-09-25T02:42:09.065Z,2.15
2022-09-25T02:45:07.235Z,2.97
2022-09-25T02:47:56.157Z,2.42
2022-09-25T02:51:04.989Z,2.40
2022-09-25T02:53:45.364Z,2.55
2022-09-25T02:56:20.237Z,1.98
2022-09-25T02:58:58.425Z,2.92
2022-09-25T03:01:29.185Z,2.13
2022-09-25T03:03:59.326Z,2.70
2022-09-25T03:06:27.331Z,1.85
2022-09-25T03:08:57.682Z,2.63
2022-09-25T03:11:29.691Z,2.45
2022-09-25T03:13:58.207Z,2.35
2022-09-25T03:16:43.806Z,2.17
2022-09-25T03:19:11.062Z,2.40
2022-09-25T03:21:38.240Z,2.45
2022-09-25T03:24:05.493Z,2.53
2022-09-25T03:26:32.626Z,2.10
2022-09-25T03:29:02.622Z,2.08
2022-09-25T03:31:30.678Z,2.70
2022-09-25T03:33:58.417Z,2.42
2022-09-25T03:36:28.065Z,2.80
2022-09-25T03:38:59.032Z,2.80
2022-09-25T03:41:31.817Z,2.22
2022-09-25T03:44:00.121Z,2.22
2022-09-25T03:46:31.176Z,2.58
2022-09-25T03:48:58.988Z,2.35
2022-09-25T03:51:28.647Z,2.17
2022-09-25T03:53:55.825Z,2.95
2022-09-25T03:56:25.011Z,2.40
2022-09-25T03:58:54.406Z,2.00
2022-09-25T04:01:22.852Z,2.00
2022-09-25T04:03:50.827Z,2.83
2022-09-25T04:06:20.780Z,2.50
2022-09-25T04:08:48.899Z,2.20
2022-09-25T04:11:20.826Z,2.53
2022-09-25T04:13:48.084Z,3.13
2022-09-25T04:16:17.115Z,2.40
2022-09-25T04:18:44.656Z,2.65
2022-09-25T04:21:13.917Z,2.13
2022-09-25T04:23:41.440Z,2.72
2022-09-25T04:26:09.236Z,2.67
2022-09-25T04:28:36.723Z,2.83
2022-09-25T04:31:04.861Z,2.45
2022-09-25T04:33:48.356Z,2.42
2022-09-25T04:36:19.203Z,2.70
2022-09-25T04:38:47.199Z,2.88
2022-09-25T04:41:20.033Z,2.28
2022-09-25T04:43:48.214Z,2.63
2022-09-25T04:46:21.431Z,2.13
2022-09-25T04:48:50.168Z,2.45
2022-09-25T04:51:17.259Z,2.83
2022-09-25T04:53:44.334Z,2.35
2022-09-25T04:56:16.376Z,2.80
2022-09-25T04:58:49.517Z,3.22
2022-09-25T05:01:19.109Z,2.58
2022-09-25T05:03:53.706Z,2.40
2022-09-25T05:06:22.585Z,2.60
2022-09-25T05:08:50.141Z,2.20
2022-09-25T05:11:17.288Z,2.33
2022-09-25T05:13:47.342Z,2.35
2022-09-25T05:16:14.526Z,1.80
2022-09-25T05:18:41.669Z,2.72
2022-09-25T05:21:08.867Z,2.40
2022-09-25T05:23:36.003Z,2.33
2022-09-25T05:26:03.319Z,2.20
2022-09-25T05:28:31.567Z,2.92
2022-09-25T05:31:03.702Z,2.35
2022-09-25T05:33:32.342Z,2.50
2022-09-25T05:36:04.598Z,3.10
2022-09-25T05:38:33.505Z,2.88
2022-09-25T05:41:09.407Z,2.30
2022-09-25T05:43:42.012Z,3.45
2022-09-25T05:46:10.807Z,2.50
2022-09-25T05:48:38.436Z,2.65
2022-09-25T05:51:06.102Z,2.38
2022-09-25T05:53:33.368Z,2.05
2022-09-25T05:56:03.453Z,2.92
2022-09-25T05:58:31.428Z,2.80
2022-09-25T06:01:03.622Z,2.92
2022-09-25T06:03:31.302Z,2.97
2022-09-25T06:06:02.354Z,3.53
2022-09-25T06:08:33.050Z,2.20
2022-09-25T06:11:03.556Z,2.60
2022-09-25T06:13:34.867Z,2.38
2022-09-25T06:16:02.893Z,1.88
2022-09-25T06:18:30.289Z,1.80
2022-09-25T06:21:02.935Z,2.85
2022-09-25T06:23:30.775Z,2.08
2022-09-25T06:26:03.120Z,2.45
2022-09-25T06:31:02.636Z,2.53
2022-09-25T06:33:30.220Z,2.63
2022-09-25T06:35:57.309Z,2.35
2022-09-25T06:38:25.331Z,1.92
2022-09-25T06:40:52.902Z,2.50
2022-09-25T06:43:20.014Z,2.38
2022-09-25T06:45:48.888Z,2.40
2022-09-25T06:48:16.409Z,2.65
2022-09-25T06:50:56.005Z,2.53
2022-09-25T06:53:24.900Z,2.15
2022-09-25T06:55:54.358Z,1.85
2022-09-25T06:58:23.555Z,2.25
2022-09-25T07:00:52.648Z,2.47
2022-09-25T07:03:39.317Z,2.58
2022-09-25T07:06:08.640Z,2.30
2022-09-25T07:08:35.726Z,2.10
2022-09-25T07:11:03.152Z,2.90
2022-09-25T07:13:32.827Z,2.53
2022-09-25T07:16:01.884Z,2.22
2022-09-25T07:18:29.856Z,2.15
2022-09-25T07:21:04.820Z,2.42
2022-09-25T07:23:33.625Z,1.83
2022-09-25T07:26:08.362Z,2.00
2022-09-25T07:28:37.367Z,1.92
2022-09-25T07:31:19.432Z,1.67
2022-09-25T07:33:48.277Z,1.70
2022-09-25T07:36:17.375Z,3.30
2022-09-25T07:38:48.836Z,1.98
2022-09-25T07:41:16.000Z,1.50
2022-09-25T07:43:43.715Z,2.03
2022-09-25T07:46:11.977Z,2.25
2022-09-25T07:48:39.735Z,1.60
2022-09-25T07:51:10.183Z,1.65
2022-09-25T07:53:38.757Z,1.98
2022-09-25T07:56:07.159Z,1.80
2022-09-25T07:58:38.024Z,1.60
2022-09-25T08:01:08.113Z,1.50
2022-09-25T08:03:35.261Z,1.65
2022-09-25T08:06:11.930Z,2.13
2022-09-25T08:08:40.825Z,1.95
2022-09-25T08:11:14.089Z,1.40
2022-09-25T08:13:42.535Z,2.08
2022-09-25T08:16:15.259Z,1.63
2022-09-25T08:18:45.487Z,1.65
2022-09-25T08:21:14.669Z,1.80
2022-09-25T08:23:47.727Z,1.10
2022-09-25T08:26:21.173Z,1.70
2022-09-25T08:28:48.882Z,1.73
2022-09-25T08:31:16.229Z,1.42
2022-09-25T08:33:48.035Z,1.88
2022-09-25T08:36:16.333Z,1.70
2022-09-25T08:38:43.786Z,1.35
2022-09-25T08:41:15.784Z,1.25
2022-09-25T08:44:19.445Z,1.58
2022-09-25T08:47:17.029Z,1.30
2022-09-25T08:50:04.751Z,1.30
2022-09-25T08:52:32.485Z,1.45
2022-09-25T08:54:59.944Z,1.50
2022-09-25T08:57:37.195Z,1.77
2022-09-25T09:00:20.724Z,1.65
2022-09-25T09:02:58.847Z,2.53
2022-09-25T09:05:29.590Z,1.70
2022-09-25T09:08:03.129Z,2.10
2022-09-25T09:10:53.612Z,1.40
2022-09-25T09:13:41.350Z,1.02
2022-09-25T09:16:18.281Z,1.42
2022-09-25T09:18:45.450Z,1.20
2022-09-25T09:21:25.549Z,2.20
2022-09-25T09:24:05.494Z,1.65
2022-09-25T09:26:55.894Z,1.20
2022-09-25T09:29:31.252Z,1.60
2022-09-25T09:32:25.848Z,1.13
2022-09-25T09:35:05.214Z,0.98
2022-09-25T09:37:54.015Z,1.05
2022-09-25T09:40:31.952Z,1.33
2022-09-25T09:43:23.871Z,0.98
2022-09-25T09:46:15.612Z,1.00
2022-09-25T09:49:03.666Z,1.57
2022-09-25T09:51:58.149Z,1.33
2022-09-25T09:54:46.583Z,1.50
2022-09-25T09:57:27.336Z,0.98
2022-09-25T10:00:00.564Z,1.67
2022-09-25T10:02:40.972Z,1.15
2022-09-25T10:05:27.312Z,1.95
2022-09-25T10:07:54.849Z,5.03
2022-09-25T10:10:50.625Z,5.63
2022-09-25T10:13:32.878Z,3.03
2022-09-25T10:16:03.546Z,1.42
2022-09-25T10:19:09.399Z,0.88
2022-09-25T10:21:51.683Z,1.20
2022-09-25T10:24:54.979Z,1.40
2022-09-25T10:27:38.405Z,1.50
2022-09-25T10:30:11.595Z,1.02
2022-09-25T10:32:46.217Z,1.50
2022-09-25T10:35:25.571Z,0.80
2022-09-25T10:37:55.812Z,1.88
2022-09-25T10:40:58.287Z,2.50
2022-09-25T10:43:25.623Z,6.80
2022-09-25T10:46:14.896Z,2.13
2022-09-25T10:49:01.196Z,1.05
2022-09-25T10:51:28.649Z,1.15
2022-09-25T10:54:13.449Z,1.33
2022-09-25T10:56:41.561Z,1.17
2022-09-25T10:59:21.070Z,0.65
2022-09-25T11:01:51.068Z,1.00
2022-09-25T11:04:18.539Z,0.80
2022-09-25T11:06:54.849Z,1.23
2022-09-25T11:09:24.369Z,1.00
2022-09-25T11:11:54.767Z,0.98
2022-09-25T11:14:33.098Z,1.30
2022-09-25T11:17:06.182Z,1.10
2022-09-25T11:19:36.367Z,1.10
2022-09-25T11:22:18.553Z,0.70
2022-09-25T11:25:11.054Z,0.88
2022-09-25T11:27:40.870Z,1.17
2022-09-25T11:30:17.170Z,1.35
2022-09-25T11:33:06.481Z,0.80
2022-09-25T11:36:04.435Z,0.82
2022-09-25T11:39:05.473Z,0.50
2022-09-25T11:41:51.828Z,0.40
2022-09-25T11:44:36.758Z,0.73
2022-09-25T11:47:11.778Z,0.70
2022-09-25T11:49:40.835Z,0.90
2022-09-25T11:52:42.621Z,0.75
2022-09-25T11:55:15.645Z,0.98
2022-09-25T11:57:57.182Z,1.13
2022-09-25T12:00:41.058Z,0.80
2022-09-25T12:04:00.314Z,0.60
2022-09-25T12:07:08.025Z,0.80
2022-09-25T12:09:54.309Z,0.50
2022-09-25T12:12:39.742Z,1.63
2022-09-25T12:15:26.215Z,0.52
2022-09-25T12:18:22.344Z,0.82
2022-09-25T12:21:01.072Z,0.65
2022-09-25T12:23:32.987Z,0.50
2022-09-25T12:26:15.101Z,0.63
2022-09-25T12:28:55.855Z,0.45
2022-09-25T12:31:33.519Z,0.95
2022-09-25T12:34:19.030Z,0.63
2022-09-25T12:36:58.305Z,0.90
2022-09-25T12:39:47.732Z,1.00
2022-09-25T12:42:23.525Z,0.80
2022-09-25T12:45:03.304Z,0.80
2022-09-25T12:47:42.091Z,0.40
2022-09-25T12:50:22.493Z,0.50
2022-09-25T12:52:52.847Z,0.75
2022-09-25T12:55:37.301Z,0.80
2022-09-25T12:58:21.303Z,0.82
2022-09-25T13:00:53.273Z,0.85
2022-09-25T13:03:28.053Z,0.47
2022-09-25T13:06:16.708Z,1.00
2022-09-25T13:08:52.986Z,0.70
2022-09-25T13:11:30.984Z,0.63
2022-09-25T13:13:59.110Z,0.90
2022-09-25T13:16:26.594Z,0.65
2022-09-25T13:19:30.384Z,0.77
2022-09-25T13:22:10.241Z,1.15
2022-09-25T13:24:59.159Z,1.35
2022-09-25T13:27:26.561Z,0.93
2022-09-25T13:29:57.308Z,0.90
2022-09-25T13:32:34.571Z,0.70
2022-09-25T13:35:07.719Z,1.00
2022-09-25T13:37:38.228Z,1.10
2022-09-25T13:40:36.809Z,0.82
2022-09-25T13:43:24.934Z,1.00
2022-09-25T13:46:17.971Z,0.63
2022-09-25T13:48:45.397Z,1.02
2022-09-25T13:51:18.578Z,0.85
2022-09-25T13:54:03.338Z,0.80
2022-09-25T13:56:33.896Z,0.75
2022-09-25T13:59:10.861Z,0.55
2022-09-25T14:01:45.123Z,0.98
2022-09-25T14:04:15.305Z,0.60
2022-09-25T14:06:44.833Z,0.60
2022-09-25T14:09:18.803Z,0.68
2022-09-25T14:12:01.486Z,0.70
2022-09-25T14:14:45.436Z,0.75
2022-09-25T14:17:19.320Z,1.05
2022-09-25T14:19:55.490Z,0.73
2022-09-25T14:22:34.984Z,0.65
2022-09-25T14:25:03.406Z,0.73
2022-09-25T14:27:30.980Z,0.70
2022-09-25T14:30:13.928Z,0.63
2022-09-25T14:32:58.515Z,0.77
2022-09-25T14:35:51.317Z,0.43
2022-09-25T14:38:31.650Z,0.70
2022-09-25T14:41:21.648Z,0.90
2022-09-25T14:44:03.833Z,0.60
2022-09-25T14:46:34.531Z,0.50
2022-09-25T14:49:20.111Z,0.77
2022-09-25T14:51:48.936Z,0.85
2022-09-25T14:54:23.340Z,0.63
2022-09-25T14:56:55.979Z,0.65
2022-09-25T14:59:31.809Z,1.00
2022-09-25T15:02:02.976Z,1.38
2022-09-25T15:04:32.878Z,0.50
2022-09-25T15:07:23.410Z,0.55
2022-09-25T15:09:55.445Z,0.80
2022-09-25T15:12:34.044Z,0.70
2022-09-25T15:15:07.751Z,0.77
2022-09-25T15:17:59.732Z,0.82
2022-09-25T15:20:30.963Z,0.90
2022-09-25T15:23:15.391Z,1.00
2022-09-25T15:25:46.742Z,0.90
2022-09-25T15:28:19.768Z,0.68
2022-09-25T15:30:55.650Z,0.90
2022-09-25T15:33:32.444Z,0.40
2022-09-25T15:36:14.268Z,0.88
2022-09-25T15:38:41.490Z,0.85
2022-09-25T15:41:17.548Z,0.90
2022-09-25T15:43:44.955Z,0.60
2022-09-25T15:46:38.189Z,0.88
2022-09-25T15:49:06.204Z,0.63
2022-09-25T15:51:34.738Z,0.50
2022-09-25T15:54:05.031Z,0.75
2022-09-25T15:56:55.338Z,0.55
2022-09-25T15:59:34.664Z,0.70
2022-09-25T16:02:38.913Z,0.63
2022-09-25T16:05:10.068Z,0.57
2022-09-25T16:07:39.037Z,0.80
2022-09-25T16:10:30.937Z,0.90
2022-09-25T16:12:58.252Z,1.07
2022-09-25T16:15:28.490Z,0.80
2022-09-25T16:18:21.812Z,0.70
2022-09-25T16:21:07.520Z,0.80
2022-09-25T16:23:35.007Z,0.88
2022-09-25T16:26:04.646Z,0.50
2022-09-25T16:28:34.781Z,0.45
2022-09-25T16:31:08.150Z,0.68
2022-09-25T16:33:39.860Z,0.40
2022-09-25T16:36:18.922Z,0.77
2022-09-25T16:39:08.205Z,0.82
2022-09-25T16:41:37.469Z,1.13
2022-09-25T16:44:35.825Z,1.35
2022-09-25T16:47:12.965Z,0.80
2022-09-25T16:49:40.151Z,0.80
2022-09-25T16:52:08.604Z,0.65
2022-09-25T16:54:38.223Z,0.80
2022-09-25T16:57:05.548Z,0.88
2022-09-25T16:59:32.627Z,0.85
2022-09-25T17:02:19.728Z,0.60
2022-09-25T17:04:46.992Z,0.43
2022-09-25T17:07:15.074Z,0.55
2022-09-25T17:09:42.226Z,0.68
2022-09-25T17:12:18.628Z,0.57
2022-09-25T17:14:46.220Z,1.00
2022-09-25T17:17:17.201Z,0.45
2022-09-25T17:19:44.443Z,0.88
2022-09-25T17:22:11.739Z,0.98
2022-09-25T17:24:38.957Z,0.85
2022-09-25T17:27:14.576Z,0.65
2022-09-25T17:29:43.250Z,0.60
2022-09-25T17:32:17.509Z,0.70
2022-09-25T17:34:47.994Z,1.13
2022-09-25T17:37:15.575Z,0.75
2022-09-25T17:39:42.669Z,0.70
2022-09-25T17:42:11.607Z,1.33
2022-09-25T17:44:42.638Z,0.82
2022-09-25T17:47:10.812Z,0.93
2022-09-25T17:49:39.224Z,1.00
2022-09-25T17:52:06.513Z,1.00
2022-09-25T17:54:33.636Z,1.20
2022-09-25T17:57:00.889Z,1.40
2022-09-25T17:59:28.141Z,1.08
2022-09-25T18:01:55.365Z,1.48
2022-09-25T18:04:25.066Z,1.38
2022-09-25T18:06:52.491Z,1.40
2022-09-25T18:09:19.996Z,1.17
2022-09-25T18:11:47.315Z,1.30
2022-09-25T18:14:15.660Z,1.67
2022-09-25T18:16:44.404Z,1.70
2022-09-25T18:19:38.240Z,1.70
2022-09-25T18:22:18.022Z,2.15
2022-09-25T18:24:46.433Z,2.90
2022-09-25T18:27:15.052Z,3.53
2022-09-25T18:29:44.558Z,3.58
2022-09-25T18:32:11.809Z,10.95
2022-09-25T18:34:38.922Z,10.95
2022-09-25T18:37:05.976Z,7.10
2022-09-25T18:39:33.132Z,5.50
2022-09-25T18:42:00.304Z,3.60
2022-09-25T18:44:27.501Z,3.15
2022-09-25T18:46:55.930Z,1.88
2022-09-25T18:49:24.153Z,1.73
2022-09-25T18:51:51.279Z,1.67
2022-09-25T18:54:19.485Z,2.13
2022-09-25T18:56:46.729Z,2.28
2022-09-25T18:59:14.081Z,2.35
2022-09-25T19:01:41.623Z,2.50
2022-09-25T19:04:14.007Z,2.10
2022-09-25T19:06:41.597Z,2.45
2022-09-25T19:09:13.821Z,2.72
2022-09-25T19:11:43.813Z,2.33
2022-09-25T19:14:14.880Z,2.45
2022-09-25T19:16:42.452Z,2.38
2022-09-25T19:19:11.334Z,2.55
2022-09-25T19:21:38.895Z,2.00
2022-09-25T19:24:06.153Z,2.58
2022-09-25T19:26:33.468Z,2.30
2022-09-25T19:29:01.231Z,2.95
2022-09-25T19:31:29.862Z,1.95
2022-09-25T19:33:58.046Z,2.50
2022-09-25T19:36:30.768Z,2.22
2022-09-25T19:38:59.098Z,2.35
2022-09-25T19:41:31.918Z,2.70
2022-09-25T19:44:05.757Z,1.92
2022-09-25T19:46:35.619Z,2.40
2022-09-25T19:49:02.882Z,1.98
2022-09-25T19:51:30.227Z,2.25
2022-09-25T19:53:57.385Z,2.10
2022-09-25T19:56:24.793Z,2.80
2022-09-25T19:58:52.142Z,2.60
2022-09-25T20:01:22.619Z,2.38
2022-09-25T20:03:50.191Z,1.85
2022-09-25T20:06:17.893Z,2.17
2022-09-25T20:08:45.342Z,2.85
2022-09-25T20:11:21.171Z,2.20
2022-09-25T20:13:50.910Z,1.92
2022-09-25T20:16:20.861Z,2.17
2022-09-25T20:18:57.737Z,1.80
2022-09-25T20:21:26.606Z,1.63
2022-09-25T20:23:56.290Z,2.00
2022-09-25T20:26:24.389Z,2.10
2022-09-25T20:28:58.471Z,1.63
2022-09-25T20:31:27.748Z,1.55
2022-09-25T20:33:54.991Z,1.80
2022-09-25T20:36:23.060Z,1.42
2022-09-25T20:38:52.022Z,1.88
2022-09-25T20:41:20.482Z,1.30
2022-09-25T20:43:52.779Z,1.27
2022-09-25T20:48:51.165Z,1.55
2022-09-25T20:51:21.456Z,1.35
2022-09-25T20:53:58.098Z,1.70
2022-09-25T20:56:27.341Z,1.35
2022-09-25T20:58:56.169Z,1.40
2022-09-25T21:01:27.642Z,1.40
2022-09-25T21:03:59.635Z,1.50
2022-09-25T21:06:29.163Z,1.85
2022-09-25T21:08:59.093Z,1.52
2022-09-25T21:11:27.792Z,1.23
2022-09-25T21:13:58.233Z,1.90
2022-09-25T21:16:27.678Z,1.38
2022-09-25T21:19:00.554Z,2.03
2022-09-25T21:21:28.505Z,1.58
2022-09-25T21:23:57.397Z,1.50
2022-09-25T21:26:27.051Z,1.92
2022-09-25T21:28:56.175Z,1.90
2022-09-25T21:31:28.693Z,1.48
2022-09-25T21:33:57.248Z,1.50
2022-09-25T21:36:26.488Z,2.47
2022-09-25T21:38:53.621Z,1.35
2022-09-25T21:41:24.122Z,2.03
2022-09-25T21:44:00.215Z,2.00
2022-09-25T21:46:28.721Z,2.55
2022-09-25T21:48:59.965Z,1.92
2022-09-25T21:51:33.396Z,2.00
2022-09-25T21:54:01.258Z,1.55
2022-09-25T21:56:31.622Z,2.08
2022-09-25T21:59:05.609Z,1.42
2022-09-25T22:01:36.414Z,1.55
2022-09-25T22:04:04.857Z,1.92
2022-09-25T22:06:36.055Z,1.85
2022-09-25T22:09:32.515Z,1.67
2022-09-25T22:11:59.720Z,2.33
2022-09-25T22:14:26.956Z,2.08
2022-09-25T22:16:54.746Z,1.45
2022-09-25T22:19:29.723Z,1.50
2022-09-25T22:21:59.255Z,1.40
2022-09-25T22:24:27.329Z,1.40
2022-09-25T22:26:56.324Z,1.98
2022-09-25T22:29:24.057Z,1.33
2022-09-25T22:31:51.424Z,1.80
2022-09-25T22:34:22.598Z,1.70
2022-09-25T22:36:54.826Z,1.48
2022-09-25T22:39:25.399Z,1.33
2022-09-25T22:41:53.757Z,1.88
2022-09-25T22:44:21.793Z,1.63
2022-09-25T22:46:49.087Z,1.02
2022-09-25T22:49:16.214Z,1.13
2022-09-25T22:51:43.580Z,1.55
2022-09-25T22:54:13.840Z,1.52
2022-09-25T22:56:42.076Z,1.33
2022-09-25T22:59:13.410Z,1.60
2022-09-25T23:01:44.022Z,1.13
2022-09-25T23:04:14.482Z,1.00
2022-09-25T23:06:41.987Z,1.42
2022-09-25T23:09:12.932Z,0.90
2022-09-25T23:11:40.493Z,2.03
2022-09-25T23:14:31.495Z,1.05
2022-09-25T23:17:00.490Z,1.23
2022-09-25T23:19:27.818Z,0.90
2022-09-25T23:21:55.140Z,1.23
2022-09-25T23:24:23.042Z,1.20
2022-09-25T23:26:51.634Z,1.02
2022-09-25T23:29:20.898Z,0.77
2022-09-25T23:31:49.240Z,1.30
2022-09-25T23:34:17.183Z,1.42
2022-09-25T23:36:44.454Z,1.70
2022-09-25T23:39:16.307Z,1.30
2022-09-25T23:41:44.053Z,1.17
2022-09-25T23:44:11.701Z,1.60
2022-09-25T23:46:40.889Z,2.08
2022-09-25T23:49:11.893Z,0.95
2022-09-25T23:51:39.172Z,1.25
2022-09-25T23:54:06.729Z,1.27
2022-09-25T23:56:35.941Z,1.33
2022-09-25T23:59:04.840Z,1.17
